Time;durP1;ratioP1;P1;durP2;ratioP2;P2;SDS_P1;SDS_P2;PMS_P1;PMS_P2;Temp;Humidity;BMP_temperature;BMP_pressure;BME280_temperature;BME280_humidity;BME280_pressure;Samples;Min_cycle;Max_cycle;Signal;HPM_P1;HPM_P2
2022/12/11 00:02:03;;;;;;;9.45;4.55;;;;;;;;;;4913014;29;20045;-69
2022/12/11 00:04:30;;;;;;;8.77;4.95;;;;;;;;;;4900675;29;20052;-68
2022/12/11 00:06:56;;;;;;;8.30;5.20;;;;;;;;;;4900521;29;20108;-68
2022/12/11 00:09:22;;;;;;;8.43;4.43;;;;;;;;;;4902881;29;20036;-69
2022/12/11 00:11:47;;;;;;;8.70;5.07;;;;;;;;;;4902755;29;20083;-66
2022/12/11 00:14:13;;;;;;;8.70;5.10;;;;;;;;;;4901516;29;20053;-67
2022/12/11 00:16:39;;;;;;;7.93;5.13;;;;;;;;;;4899287;29;20049;-68
2022/12/11 00:19:05;;;;;;;9.32;5.68;;;;;;;;;;4914879;29;20051;-68
2022/12/11 00:21:31;;;;;;;6.28;4.00;;;;;;;;;;4901527;29;20044;-67
2022/12/11 00:23:56;;;;;;;9.23;5.38;;;;;;;;;;4913333;29;20045;-68
2022/12/11 00:26:22;;;;;;;8.63;5.28;;;;;;;;;;4897695;29;20041;-68
2022/12/11 00:28:51;;;;;;;8.93;5.63;;;;;;;;;;4913398;29;20044;-67
2022/12/11 00:31:17;;;;;;;8.70;5.57;;;;;;;;;;4897500;29;20045;-68
2022/12/11 00:33:43;;;;;;;11.48;5.43;;;;;;;;;;4913327;29;20127;-68
2022/12/11 00:36:16;;;;;;;9.13;5.43;;;;;;;;;;4898744;29;20123;-68
2022/12/11 00:38:42;;;;;;;10.25;5.15;;;;;;;;;;4913291;29;20032;-67
2022/12/11 00:41:08;;;;;;;7.15;4.93;;;;;;;;;;4897378;29;20040;-67
2022/12/11 00:43:34;;;;;;;7.68;4.68;;;;;;;;;;4913335;29;20063;-67
2022/12/11 00:45:59;;;;;;;9.00;5.95;;;;;;;;;;4898564;29;20411;-67
2022/12/11 00:48:25;;;;;;;7.75;4.85;;;;;;;;;;4898689;29;20132;-67
2022/12/11 00:50:51;;;;;;;7.97;5.38;;;;;;;;;;4897554;29;20036;-68
2022/12/11 00:53:17;;;;;;;8.13;4.40;;;;;;;;;;4897498;29;20043;-67
2022/12/11 00:55:43;;;;;;;11.23;6.32;;;;;;;;;;4913140;29;20039;-68
2022/12/11 00:58:09;;;;;;;7.65;4.28;;;;;;;;;;4898560;29;20044;-67
2022/12/11 01:00:34;;;;;;;9.23;5.47;;;;;;;;;;4913008;29;20037;-67
2022/12/11 01:03:00;;;;;;;12.43;6.28;;;;;;;;;;4896606;29;20487;-68
2022/12/11 01:05:25;;;;;;;10.07;6.15;;;;;;;;;;4898309;29;20607;-67
2022/12/11 01:07:51;;;;;;;8.93;5.55;;;;;;;;;;4912743;29;20095;-67
2022/12/11 01:10:25;;;;;;;9.73;5.70;;;;;;;;;;4898384;29;20402;-67
2022/12/11 01:12:52;;;;;;;12.95;5.93;;;;;;;;;;4911146;29;20087;-68
2022/12/11 01:15:18;;;;;;;10.07;6.10;;;;;;;;;;4912581;29;20055;-67
2022/12/11 01:17:44;;;;;;;13.38;5.97;;;;;;;;;;4881157;29;20056;-68
2022/12/11 01:20:10;;;;;;;10.10;6.45;;;;;;;;;;4897880;29;20033;-68
2022/12/11 01:22:35;;;;;;;10.25;5.50;;;;;;;;;;4912291;29;20075;-67
2022/12/11 01:25:01;;;;;;;8.20;5.30;;;;;;;;;;4897726;29;20487;-67
2022/12/11 01:27:28;;;;;;;11.85;6.28;;;;;;;;;;4897544;29;20064;-68
2022/12/11 01:29:54;;;;;;;7.90;5.22;;;;;;;;;;4911572;29;20072;-68
2022/12/11 01:32:19;;;;;;;10.00;5.28;;;;;;;;;;4898012;29;20088;-69
2022/12/11 01:34:45;;;;;;;10.45;5.75;;;;;;;;;;4897711;29;20146;-67
2022/12/11 01:37:11;;;;;;;9.85;5.18;;;;;;;;;;4912227;29;20044;-67
2022/12/11 01:39:37;;;;;;;10.48;5.45;;;;;;;;;;4896324;29;20135;-68
2022/12/11 01:42:03;;;;;;;12.25;5.32;;;;;;;;;;4912174;29;20095;-68
2022/12/11 01:44:28;;;;;;;10.20;5.70;;;;;;;;;;4911961;29;20052;-68
2022/12/11 01:46:54;;;;;;;8.65;5.07;;;;;;;;;;4897670;29;20111;-68
2022/12/11 01:49:21;;;;;;;9.77;5.47;;;;;;;;;;4897684;29;20033;-67
2022/12/11 01:52:00;;;;;;;10.75;5.78;;;;;;;;;;4911922;29;20458;-67
2022/12/11 01:54:26;;;;;;;11.20;6.00;;;;;;;;;;4896040;29;20045;-67
2022/12/11 01:56:54;;;;;;;9.05;6.05;;;;;;;;;;4897447;29;20087;-69
2022/12/11 01:59:23;;;;;;;9.65;5.15;;;;;;;;;;4897257;29;20047;-68
2022/12/11 02:01:52;;;;;;;10.43;5.40;;;;;;;;;;4911684;29;20040;-67
2022/12/11 02:04:18;;;;;;;11.73;5.63;;;;;;;;;;4896983;29;20056;-67
2022/12/11 02:06:45;;;;;;;12.07;5.43;;;;;;;;;;4895764;29;20072;-67
2022/12/11 02:09:16;;;;;;;11.85;5.82;;;;;;;;;;4895828;29;20043;-67
2022/12/11 02:12:02;;;;;;;10.73;5.68;;;;;;;;;;4896953;29;20043;-67
2022/12/11 02:14:46;;;;;;;12.98;6.25;;;;;;;;;;4876308;29;20585;-67
2022/12/11 02:17:30;;;;;;;15.20;6.38;;;;;;;;;;4896812;29;20082;-69
2022/12/11 02:19:56;;;;;;;21.17;6.95;;;;;;;;;;4897114;29;20127;-68
2022/12/11 02:22:42;;;;;;;13.80;7.13;;;;;;;;;;4895729;29;20091;-67
2022/12/11 02:25:10;;;;;;;13.52;6.82;;;;;;;;;;4876352;29;20087;-67
2022/12/11 02:27:41;;;;;;;25.63;7.35;;;;;;;;;;4911224;29;20041;-69
2022/12/11 02:30:08;;;;;;;19.85;6.60;;;;;;;;;;4911208;29;20502;-68
2022/12/11 02:32:38;;;;;;;17.17;7.40;;;;;;;;;;4896521;29;20045;-67
2022/12/11 02:35:23;;;;;;;18.92;6.53;;;;;;;;;;4896624;29;20120;-67
2022/12/11 02:37:50;;;;;;;15.95;7.03;;;;;;;;;;4897050;29;20036;-67
2022/12/11 02:40:18;;;;;;;14.07;6.72;;;;;;;;;;4911462;29;20037;-67
2022/12/11 02:42:45;;;;;;;17.45;7.70;;;;;;;;;;4895546;29;20045;-67
2022/12/11 02:45:11;;;;;;;18.73;6.35;;;;;;;;;;4896403;29;20567;-68
2022/12/11 02:47:36;;;;;;;26.63;8.27;;;;;;;;;;4895378;29;20044;-67
2022/12/11 02:50:06;;;;;;;16.70;7.57;;;;;;;;;;4895296;29;20043;-66
2022/12/11 02:52:33;;;;;;;19.02;8.02;;;;;;;;;;4895372;29;20418;-67
2022/12/11 02:54:59;;;;;;;21.30;7.50;;;;;;;;;;4896501;29;20068;-66
2022/12/11 02:57:43;;;;;;;20.15;8.13;;;;;;;;;;4911088;29;20045;-66
2022/12/11 03:00:10;;;;;;;18.35;9.20;;;;;;;;;;4896353;29;20084;-67
2022/12/11 03:02:36;;;;;;;36.80;10.35;;;;;;;;;;4911033;29;20037;-67
2022/12/11 03:05:03;;;;;;;16.25;8.13;;;;;;;;;;4895052;29;20044;-67
2022/12/11 03:07:31;;;;;;;17.20;8.70;;;;;;;;;;4896721;29;20044;-66
2022/12/11 03:09:57;;;;;;;23.50;9.95;;;;;;;;;;4895054;29;20044;-68
2022/12/11 03:12:30;;;;;;;20.13;9.00;;;;;;;;;;4894955;29;20487;-66
2022/12/11 03:14:58;;;;;;;28.17;9.13;;;;;;;;;;4896228;29;20032;-66
2022/12/11 03:17:33;;;;;;;29.00;9.10;;;;;;;;;;4896643;29;20502;-68
2022/12/11 03:20:14;;;;;;;19.00;8.15;;;;;;;;;;4895045;29;20127;-68
2022/12/11 03:22:41;;;;;;;24.20;8.48;;;;;;;;;;4910956;29;20475;-67
2022/12/11 03:25:10;;;;;;;26.48;9.50;;;;;;;;;;4894818;29;20053;-66
2022/12/11 03:27:40;;;;;;;18.00;7.82;;;;;;;;;;4910846;29;20033;-68
2022/12/11 03:30:09;;;;;;;19.88;8.75;;;;;;;;;;4894991;29;20036;-66
2022/12/11 03:32:49;;;;;;;33.58;9.60;;;;;;;;;;4895061;29;20053;-67
2022/12/11 03:35:14;;;;;;;;;;;;;;;;;;4896744;29;20119;-67
2022/12/11 03:37:41;;;;;;;25.77;8.23;;;;;;;;;;4899768;29;20015;-66
2022/12/11 03:40:09;;;;;;;36.00;9.55;;;;;;;;;;4914334;29;20029;-67
2022/12/11 03:42:35;;;;;;;30.58;9.40;;;;;;;;;;4898506;29;20043;-68
2022/12/11 03:45:02;;;;;;;33.55;9.32;;;;;;;;;;4898353;29;20083;-67
2022/12/11 03:47:30;;;;;;;28.33;8.93;;;;;;;;;;4899940;29;20060;-66
2022/12/11 03:49:56;;;;;;;23.95;8.20;;;;;;;;;;4899552;29;20506;-67
2022/12/11 03:52:26;;;;;;;42.20;10.15;;;;;;;;;;4898469;29;20671;-66
2022/12/11 03:54:52;;;;;;;55.10;11.15;;;;;;;;;;4899354;29;20092;-67
2022/12/11 03:57:19;;;;;;;37.90;10.10;;;;;;;;;;4898316;29;20578;-68
2022/12/11 03:59:45;;;;;;;42.80;9.68;;;;;;;;;;4899569;29;20045;-67
2022/12/11 04:02:10;;;;;;;44.45;10.15;;;;;;;;;;4899583;29;20047;-67
2022/12/11 04:04:37;;;;;;;24.42;9.25;;;;;;;;;;4914036;29;20071;-68
2022/12/11 04:07:03;;;;;;;29.83;10.02;;;;;;;;;;4898057;29;20487;-67
2022/12/11 04:09:28;;;;;;;50.70;10.02;;;;;;;;;;4914036;29;20047;-67
2022/12/11 04:11:53;;;;;;;33.03;9.93;;;;;;;;;;4913704;29;20053;-68
2022/12/11 04:17:04;;;;;;;29.10;8.95;;;;;;;;;;4897853;29;20036;-67
2022/12/11 04:24:59;;;;;;;32.15;10.18;;;;;;;;;;4898884;29;20127;-66
2022/12/11 04:30:11;;;;;;;32.90;9.23;;;;;;;;;;4897554;29;20178;-67
2022/12/11 04:32:37;;;;;;;27.38;7.93;;;;;;;;;;4913231;29;20284;-66
2022/12/11 04:35:03;;;;;;;35.47;9.55;;;;;;;;;;4913495;29;20025;-67
2022/12/11 04:37:29;;;;;;;39.90;10.38;;;;;;;;;;4899081;29;20557;-67
2022/12/11 04:39:54;;;;;;;42.22;10.15;;;;;;;;;;4898860;29;20183;-67
2022/12/11 04:42:20;;;;;;;43.47;10.05;;;;;;;;;;4913266;29;20104;-65
2022/12/11 04:44:45;;;;;;;55.20;10.93;;;;;;;;;;4898557;29;20423;-66
2022/12/11 04:47:11;;;;;;;53.42;10.75;;;;;;;;;;4896928;29;20096;-66
2022/12/11 04:49:36;;;;;;;35.03;8.63;;;;;;;;;;4897325;29;20041;-67
2022/12/11 04:52:02;;;;;;;39.15;10.00;;;;;;;;;;4898610;29;20084;-66
2022/12/11 04:54:31;;;;;;;47.08;10.10;;;;;;;;;;4898390;29;20495;-68
2022/12/11 04:56:56;;;;;;;51.58;10.50;;;;;;;;;;4897112;29;20398;-66
2022/12/11 04:59:22;;;;;;;28.42;9.43;;;;;;;;;;4898397;29;20111;-67
2022/12/11 05:01:48;;;;;;;41.92;10.60;;;;;;;;;;4896938;29;20045;-64
2022/12/11 05:04:14;;;;;;;26.95;9.13;;;;;;;;;;4912488;29;20059;-66
2022/12/11 05:06:39;;;;;;;56.92;9.65;;;;;;;;;;4896628;29;20051;-66
2022/12/11 05:09:05;;;;;;;16.77;6.97;;;;;;;;;;4896697;29;20424;-69
2022/12/11 05:11:30;;;;;;;79.22;10.65;;;;;;;;;;4898216;29;20041;-67
2022/12/11 05:13:56;;;;;;;39.88;9.82;;;;;;;;;;4896790;29;20439;-68
2022/12/11 05:16:21;;;;;;;50.08;9.60;;;;;;;;;;4911754;29;20509;-67
2022/12/11 05:18:47;;;;;;;39.72;10.07;;;;;;;;;;4912584;29;20051;-68
2022/12/11 05:21:13;;;;;;;34.05;9.63;;;;;;;;;;4898134;29;20119;-67
2022/12/11 05:23:39;;;;;;;33.05;8.63;;;;;;;;;;4896856;29;20045;-68
2022/12/11 05:26:07;;;;;;;35.00;9.13;;;;;;;;;;4912305;29;20055;-67
2022/12/11 05:28:34;;;;;;;32.08;9.65;;;;;;;;;;4897627;29;20251;-68
2022/12/11 05:31:01;;;;;;;62.08;10.30;;;;;;;;;;4896215;29;20104;-68
2022/12/11 05:33:27;;;;;;;29.77;8.35;;;;;;;;;;4897694;29;20036;-68
2022/12/11 05:35:53;;;;;;;39.70;9.52;;;;;;;;;;4896497;29;20036;-68
2022/12/11 05:38:18;;;;;;;33.47;9.48;;;;;;;;;;4896001;29;20033;-68
2022/12/11 05:40:44;;;;;;;22.77;7.63;;;;;;;;;;4911946;29;20040;-68
2022/12/11 05:43:09;;;;;;;36.72;11.15;;;;;;;;;;4911705;29;20041;-68
2022/12/11 05:45:35;;;;;;;26.75;7.50;;;;;;;;;;4895995;29;20042;-67
2022/12/11 05:48:01;;;;;;;28.60;10.13;;;;;;;;;;4896047;29;20036;-67
2022/12/11 05:50:26;;;;;;;31.00;9.55;;;;;;;;;;4897607;29;20036;-69
2022/12/11 05:52:52;;;;;;;34.72;9.82;;;;;;;;;;4898407;29;20043;-68
2022/12/11 05:55:17;;;;;;;23.02;8.90;;;;;;;;;;4898742;29;20040;-68
2022/12/11 05:57:43;;;;;;;32.15;10.85;;;;;;;;;;4899723;29;20049;-68
2022/12/11 06:00:10;;;;;;;23.55;9.77;;;;;;;;;;4899034;29;20044;-67
2022/12/11 06:02:36;;;;;;;29.17;8.85;;;;;;;;;;4914894;29;20111;-69
2022/12/11 06:05:01;;;;;;;23.77;10.32;;;;;;;;;;4914143;29;20045;-68
2022/12/11 06:07:28;;;;;;;25.85;10.15;;;;;;;;;;4896912;29;20045;-69
2022/12/11 06:09:54;;;;;;;22.13;10.00;;;;;;;;;;4896337;29;20437;-68
2022/12/11 06:12:19;;;;;;;20.02;8.55;;;;;;;;;;4897136;29;20499;-68
2022/12/11 06:14:45;;;;;;;16.35;8.52;;;;;;;;;;4895695;29;20044;-68
2022/12/11 06:17:10;;;;;;;19.83;9.68;;;;;;;;;;4897126;29;20044;-68
2022/12/11 06:19:36;;;;;;;19.58;9.55;;;;;;;;;;4897090;29;20499;-69
2022/12/11 06:22:01;;;;;;;22.75;9.40;;;;;;;;;;4895503;29;20048;-69
2022/12/11 06:24:27;;;;;;;19.50;8.65;;;;;;;;;;4911163;29;20080;-69
2022/12/11 06:26:52;;;;;;;21.63;8.60;;;;;;;;;;4911219;29;20506;-70
2022/12/11 06:29:18;;;;;;;16.70;9.23;;;;;;;;;;4895484;29;20040;-68
2022/12/11 06:31:43;;;;;;;21.08;9.13;;;;;;;;;;4911308;29;20052;-70
2022/12/11 06:34:12;;;;;;;14.60;7.72;;;;;;;;;;4910895;29;20119;-69
2022/12/11 06:36:37;;;;;;;18.98;8.38;;;;;;;;;;4911335;29;20470;-70
2022/12/11 06:39:03;;;;;;;15.85;8.40;;;;;;;;;;4911059;29;20123;-67
2022/12/11 06:41:28;;;;;;;17.20;8.48;;;;;;;;;;4895142;29;20048;-68
2022/12/11 06:43:54;;;;;;;19.38;9.52;;;;;;;;;;4896304;29;20052;-68
2022/12/11 06:46:19;;;;;;;20.20;8.38;;;;;;;;;;4896320;29;20495;-69
2022/12/11 06:48:45;;;;;;;20.33;8.88;;;;;;;;;;4910850;29;20029;-71
2022/12/11 06:51:12;;;;;;;20.63;9.23;;;;;;;;;;4896369;29;20560;-70
2022/12/11 06:53:38;;;;;;;14.55;8.60;;;;;;;;;;4896395;29;20498;-66
2022/12/11 06:56:05;;;;;;;17.58;8.93;;;;;;;;;;4896573;29;20052;-67
2022/12/11 06:58:32;;;;;;;21.25;10.05;;;;;;;;;;4896537;29;20041;-68
2022/12/11 07:00:58;;;;;;;19.73;9.15;;;;;;;;;;4896385;29;20052;-67
2022/12/11 07:03:25;;;;;;;18.92;9.95;;;;;;;;;;4895045;29;20250;-68
2022/12/11 07:05:50;;;;;;;22.17;10.20;;;;;;;;;;4896305;29;20399;-67
2022/12/11 07:08:16;;;;;;;18.77;9.50;;;;;;;;;;4895995;29;20131;-70
2022/12/11 07:10:42;;;;;;;17.80;8.57;;;;;;;;;;4895454;29;20112;-68
2022/12/11 07:13:07;;;;;;;19.63;8.70;;;;;;;;;;4899993;29;20074;-68
2022/12/11 07:15:32;;;;;;;19.55;9.43;;;;;;;;;;4900422;29;20032;-68
2022/12/11 07:17:58;;;;;;;18.23;8.77;;;;;;;;;;4900001;29;20036;-69
2022/12/11 07:20:23;;;;;;;17.00;10.05;;;;;;;;;;4914864;29;20052;-71
2022/12/11 07:22:49;;;;;;;18.77;9.43;;;;;;;;;;4898804;29;20092;-71
2022/12/11 07:25:14;;;;;;;18.33;8.88;;;;;;;;;;4914456;29;20070;-68
2022/12/11 07:27:40;;;;;;;16.85;8.82;;;;;;;;;;4914508;29;20033;-69
2022/12/11 07:30:06;;;;;;;18.35;9.48;;;;;;;;;;4914468;29;20037;-69
2022/12/11 07:32:32;;;;;;;17.15;8.98;;;;;;;;;;4900213;29;20411;-70
2022/12/11 07:34:57;;;;;;;22.25;10.20;;;;;;;;;;4897498;29;20032;-69
2022/12/11 07:37:23;;;;;;;17.23;8.73;;;;;;;;;;4900133;29;20071;-72
2022/12/11 07:39:48;;;;;;;21.02;9.05;;;;;;;;;;4899739;29;20036;-72
2022/12/11 07:42:14;;;;;;;15.85;8.07;;;;;;;;;;4898192;29;20099;-69
2022/12/11 07:44:39;;;;;;;19.35;8.52;;;;;;;;;;4899584;29;20044;-66
2022/12/11 07:47:05;;;;;;;19.42;9.00;;;;;;;;;;4899842;29;20379;-71
2022/12/11 07:49:30;;;;;;;18.98;9.02;;;;;;;;;;4898325;29;20418;-71
2022/12/11 07:51:56;;;;;;;20.35;8.85;;;;;;;;;;4899658;29;20040;-69
2022/12/11 07:54:22;;;;;;;14.98;8.43;;;;;;;;;;4899673;29;20051;-68
2022/12/11 07:56:47;;;;;;;22.63;9.90;;;;;;;;;;4914032;29;20530;-71
2022/12/11 07:59:13;;;;;;;21.98;9.98;;;;;;;;;;4899394;29;20172;-72
2022/12/11 08:01:38;;;;;;;15.60;8.52;;;;;;;;;;4913953;29;20076;-72
2022/12/11 08:04:09;;;;;;;17.80;9.00;;;;;;;;;;4899227;29;20053;-70
2022/12/11 08:06:36;;;;;;;16.13;8.45;;;;;;;;;;4898031;29;20433;-69
2022/12/11 08:09:03;;;;;;;16.27;7.97;;;;;;;;;;4899493;29;20128;-70
2022/12/11 08:11:29;;;;;;;18.67;9.13;;;;;;;;;;4913443;29;20044;-69
2022/12/11 08:13:54;;;;;;;16.10;8.20;;;;;;;;;;4899081;29;20064;-68
2022/12/11 08:16:20;;;;;;;13.95;8.15;;;;;;;;;;4913800;29;20052;-67
2022/12/11 08:18:46;;;;;;;14.48;7.10;;;;;;;;;;4899109;29;20562;-68
2022/12/11 08:21:12;;;;;;;14.93;7.13;;;;;;;;;;4913464;29;20411;-69
2022/12/11 08:23:37;;;;;;;14.35;7.60;;;;;;;;;;4913125;29;20096;-67
2022/12/11 08:26:06;;;;;;;12.73;7.70;;;;;;;;;;4913301;29;20569;-67
2022/12/11 08:28:31;;;;;;;20.13;9.15;;;;;;;;;;4898671;29;20459;-68
2022/12/11 08:30:57;;;;;;;15.88;8.30;;;;;;;;;;4898696;29;20052;-68
2022/12/11 08:33:23;;;;;;;15.68;8.63;;;;;;;;;;4897525;29;20485;-68
2022/12/11 08:35:49;;;;;;;15.02;8.52;;;;;;;;;;4898746;29;20044;-67
2022/12/11 08:38:14;;;;;;;12.52;6.97;;;;;;;;;;4898705;29;20072;-67
2022/12/11 08:40:40;;;;;;;15.27;7.78;;;;;;;;;;4913277;29;20056;-64
2022/12/11 08:43:06;;;;;;;17.00;8.50;;;;;;;;;;4913008;29;20370;-68
2022/12/11 08:45:31;;;;;;;14.60;8.07;;;;;;;;;;4898816;29;20041;-64
2022/12/11 08:47:57;;;;;;;13.82;8.50;;;;;;;;;;4898457;29;20037;-67
2022/12/11 08:50:23;;;;;;;13.80;8.00;;;;;;;;;;4912950;29;20067;-68
2022/12/11 08:52:48;;;;;;;14.13;8.63;;;;;;;;;;4898695;29;20075;-67
2022/12/11 08:55:14;;;;;;;12.75;7.47;;;;;;;;;;4912994;29;20047;-65
2022/12/11 08:57:39;;;;;;;14.60;7.78;;;;;;;;;;4898696;29;20072;-67
2022/12/11 09:00:05;;;;;;;13.48;7.63;;;;;;;;;;4898391;29;20520;-69
2022/12/11 09:02:31;;;;;;;13.85;7.57;;;;;;;;;;4912879;29;20048;-70
2022/12/11 09:04:56;;;;;;;15.18;7.57;;;;;;;;;;4912589;29;20455;-68
2022/12/11 09:07:22;;;;;;;15.27;8.18;;;;;;;;;;4898385;29;20052;-69
2022/12/11 09:09:48;;;;;;;17.10;7.68;;;;;;;;;;4897974;29;20152;-73
2022/12/11 09:12:13;;;;;;;16.00;9.07;;;;;;;;;;4897796;29;20044;-69
2022/12/11 09:14:39;;;;;;;11.80;7.35;;;;;;;;;;4897777;29;20064;-70
2022/12/11 09:17:04;;;;;;;12.52;7.22;;;;;;;;;;4912512;29;20048;-70
2022/12/11 09:19:30;;;;;;;15.65;7.88;;;;;;;;;;4912731;29;20062;-67
2022/12/11 09:21:55;;;;;;;15.45;8.10;;;;;;;;;;4912305;29;20059;-69
2022/12/11 09:24:21;;;;;;;11.90;7.68;;;;;;;;;;4897833;29;20103;-68
2022/12/11 09:26:46;;;;;;;15.63;8.57;;;;;;;;;;4897700;29;20061;-71
2022/12/11 09:29:12;;;;;;;13.10;7.88;;;;;;;;;;4898069;29;20088;-67
2022/12/11 09:31:37;;;;;;;17.25;9.15;;;;;;;;;;4897509;29;20470;-71
2022/12/11 09:34:04;;;;;;;16.20;8.77;;;;;;;;;;4896972;29;20044;-71
2022/12/11 09:36:30;;;;;;;11.55;7.30;;;;;;;;;;4896189;29;20033;-68
2022/12/11 09:39:00;;;;;;;15.73;8.70;;;;;;;;;;4897625;29;20072;-70
2022/12/11 09:41:35;;;;;;;15.35;8.30;;;;;;;;;;4897615;29;20040;-70
2022/12/11 09:44:04;;;;;;;16.08;9.02;;;;;;;;;;4911868;29;20044;-71
2022/12/11 09:46:30;;;;;;;16.10;8.90;;;;;;;;;;4907226;29;20508;-72
2022/12/11 09:48:56;;;;;;;13.60;7.90;;;;;;;;;;4911754;29;20043;-69
2022/12/11 09:51:37;;;;;;;15.23;8.75;;;;;;;;;;4896984;29;20048;-72
2022/12/11 09:54:03;;;;;;;12.32;6.15;;;;;;;;;;4911610;29;20064;-72
2022/12/11 09:56:38;;;;;;;13.30;8.05;;;;;;;;;;4911383;29;20047;-70
2022/12/11 09:59:06;;;;;;;12.43;7.63;;;;;;;;;;4895714;29;20092;-72
2022/12/11 10:01:51;;;;;;;15.27;7.95;;;;;;;;;;4896750;29;20068;-71
2022/12/11 10:04:28;;;;;;;13.20;7.97;;;;;;;;;;4892844;29;20059;-72
2022/12/11 10:07:23;;;;;;;13.57;8.27;;;;;;;;;;4911138;29;20063;-72
2022/12/11 10:09:54;;;;;;;10.40;5.28;;;;;;;;;;4911207;29;20044;-72
2022/12/11 10:12:28;;;;;;;12.40;7.63;;;;;;;;;;4896623;29;20470;-72
2022/12/11 10:15:12;;;;;;;13.50;7.47;;;;;;;;;;4911067;29;20040;-71
2022/12/11 10:17:39;;;;;;;11.27;6.25;;;;;;;;;;4910499;29;20497;-69
2022/12/11 10:20:13;;;;;;;13.85;7.65;;;;;;;;;;4894906;29;20103;-70
2022/12/11 10:22:39;;;;;;;17.73;8.68;;;;;;;;;;4897163;29;20052;-72
2022/12/11 10:25:06;;;;;;;17.73;8.52;;;;;;;;;;4894820;29;20052;-72
2022/12/11 10:27:33;;;;;;;14.00;8.30;;;;;;;;;;4910900;29;20092;-64
2022/12/11 10:30:17;;;;;;;14.05;7.25;;;;;;;;;;4896430;29;20040;-70
2022/12/11 10:32:50;;;;;;;15.57;8.85;;;;;;;;;;4896275;29;20187;-66
2022/12/11 10:35:23;;;;;;;16.88;8.57;;;;;;;;;;4896392;29;20048;-66
2022/12/11 10:37:49;;;;;;;15.90;8.07;;;;;;;;;;4895964;29;20502;-66
2022/12/11 10:40:15;;;;;;;15.02;8.02;;;;;;;;;;4896141;29;20466;-66
2022/12/11 10:42:50;;;;;;;12.38;7.82;;;;;;;;;;4911019;29;20132;-65
2022/12/11 10:45:16;;;;;;;15.18;8.02;;;;;;;;;;4910460;29;20070;-68
2022/12/11 10:47:41;;;;;;;12.73;7.30;;;;;;;;;;4910760;29;20037;-67
2022/12/11 10:50:07;;;;;;;13.00;7.85;;;;;;;;;;4910851;29;20422;-65
2022/12/11 10:52:42;;;;;;;14.40;7.30;;;;;;;;;;4896414;29;20040;-70
2022/12/11 10:55:17;;;;;;;13.43;7.90;;;;;;;;;;4911862;29;20045;-64
2022/12/11 10:57:44;;;;;;;13.90;7.38;;;;;;;;;;4913873;29;20040;-66
2022/12/11 11:00:28;;;;;;;15.80;8.02;;;;;;;;;;4899265;29;20072;-70
2022/12/11 11:02:54;;;;;;;13.00;8.00;;;;;;;;;;4914523;29;20581;-70
2022/12/11 11:05:45;;;;;;;15.15;8.30;;;;;;;;;;4897499;29;20088;-65
2022/12/11 11:08:24;;;;;;;16.17;8.63;;;;;;;;;;4911592;29;20052;-65
2022/12/11 11:10:59;;;;;;;15.98;8.65;;;;;;;;;;4896075;29;20073;-64
2022/12/11 11:13:26;;;;;;;17.13;7.60;;;;;;;;;;4896004;29;20068;-65
2022/12/11 11:16:06;;;;;;;16.30;8.20;;;;;;;;;;4895636;29;20050;-65
2022/12/11 11:18:32;;;;;;;16.55;8.18;;;;;;;;;;4896294;29;20080;-65
2022/12/11 11:20:59;;;;;;;13.93;8.70;;;;;;;;;;4895600;29;20041;-65
2022/12/11 11:23:25;;;;;;;16.15;8.30;;;;;;;;;;4895565;29;20217;-64
2022/12/11 11:25:50;;;;;;;17.02;8.20;;;;;;;;;;4895907;29;20180;-65
2022/12/11 11:28:36;;;;;;;14.18;7.95;;;;;;;;;;4910282;29;20437;-62
2022/12/11 11:31:01;;;;;;;14.27;7.93;;;;;;;;;;4909853;29;20040;-65
2022/12/11 11:33:28;;;;;;;18.27;7.45;;;;;;;;;;4897155;29;20486;-66
2022/12/11 11:35:55;;;;;;;17.02;8.38;;;;;;;;;;4913867;29;20338;-68
2022/12/11 11:38:21;;;;;;;15.05;7.70;;;;;;;;;;4896422;29;20037;-63
2022/12/11 11:40:54;;;;;;;14.50;7.82;;;;;;;;;;4895806;29;20040;-64
2022/12/11 11:43:29;;;;;;;15.80;8.50;;;;;;;;;;4909980;29;20044;-61
2022/12/11 11:46:01;;;;;;;14.25;7.78;;;;;;;;;;4909683;29;20193;-63
2022/12/11 11:48:46;;;;;;;14.23;7.72;;;;;;;;;;4910453;29;20057;-64
2022/12/11 11:51:14;;;;;;;17.83;8.15;;;;;;;;;;4895559;29;20044;-64
2022/12/11 11:53:42;;;;;;;13.38;7.38;;;;;;;;;;4894204;29;20031;-63
2022/12/11 11:56:26;;;;;;;15.43;8.48;;;;;;;;;;4895046;29;20423;-65
2022/12/11 11:59:07;;;;;;;16.60;8.43;;;;;;;;;;4898623;29;20040;-63
2022/12/11 12:01:32;;;;;;;11.52;6.63;;;;;;;;;;4897291;29;20049;-64
2022/12/11 12:03:58;;;;;;;13.75;6.85;;;;;;;;;;4898919;29;20052;-64
2022/12/11 12:06:37;;;;;;;17.05;8.50;;;;;;;;;;4899222;29;20044;-64
2022/12/11 12:09:15;;;;;;;13.52;7.78;;;;;;;;;;4913419;29;20254;-64
2022/12/11 12:11:56;;;;;;;14.68;8.23;;;;;;;;;;4898767;29;20041;-66
2022/12/11 12:14:29;;;;;;;19.67;10.27;;;;;;;;;;4898463;29;20127;-63
2022/12/11 12:17:07;;;;;;;18.58;9.60;;;;;;;;;;4897355;29;20041;-63
2022/12/11 12:19:40;;;;;;;17.95;9.77;;;;;;;;;;4913354;29;20521;-63
2022/12/11 12:22:17;;;;;;;18.08;8.95;;;;;;;;;;4916629;29;20052;-63
2022/12/11 12:25:06;;;;;;;14.05;7.38;;;;;;;;;;4915947;29;20304;-64
2022/12/11 12:27:52;;;;;;;19.63;8.68;;;;;;;;;;4900310;29;20045;-64
2022/12/11 12:30:18;;;;;;;16.90;8.35;;;;;;;;;;4900883;29;20044;-64
2022/12/11 12:33:02;;;;;;;18.60;10.00;;;;;;;;;;4915734;29;20052;-65
2022/12/11 12:35:28;;;;;;;15.57;8.93;;;;;;;;;;4899588;29;20041;-64
2022/12/11 12:38:04;;;;;;;22.23;10.23;;;;;;;;;;4897245;29;20041;-62
2022/12/11 12:40:30;;;;;;;19.95;10.20;;;;;;;;;;4912811;29;20180;-65
2022/12/11 12:43:08;;;;;;;19.88;9.95;;;;;;;;;;4912767;29;20072;-63
2022/12/11 12:45:47;;;;;;;21.27;11.18;;;;;;;;;;4897801;29;20084;-63
2022/12/11 12:48:13;;;;;;;22.33;9.82;;;;;;;;;;4912952;29;20047;-66
2022/12/11 12:50:45;;;;;;;22.08;9.57;;;;;;;;;;4897133;29;20498;-67
2022/12/11 12:53:15;;;;;;;21.50;9.57;;;;;;;;;;4913708;29;20188;-65
2022/12/11 12:55:41;;;;;;;16.05;8.80;;;;;;;;;;4912734;29;20040;-66
2022/12/11 12:58:06;;;;;;;22.42;11.30;;;;;;;;;;4896479;29;20067;-66
2022/12/11 13:00:36;;;;;;;21.45;10.75;;;;;;;;;;4897845;29;20041;-67
2022/12/11 13:03:16;;;;;;;24.88;11.73;;;;;;;;;;4898036;29;20038;-66
2022/12/11 13:06:02;;;;;;;20.98;11.77;;;;;;;;;;4897725;29;20548;-68
2022/12/11 13:08:39;;;;;;;25.83;12.50;;;;;;;;;;4900376;29;20049;-67
2022/12/11 13:11:09;;;;;;;22.00;10.40;;;;;;;;;;4896473;29;20072;-68
2022/12/11 13:13:42;;;;;;;19.52;10.90;;;;;;;;;;4898001;29;20511;-66
2022/12/11 13:16:10;;;;;;;23.52;11.50;;;;;;;;;;4897457;29;20423;-67
2022/12/11 13:18:37;;;;;;;19.77;10.40;;;;;;;;;;4912356;29;20037;-67
2022/12/11 13:21:22;;;;;;;18.65;10.25;;;;;;;;;;4911759;29;20051;-71
2022/12/11 13:23:47;;;;;;;13.35;7.78;;;;;;;;;;4897693;29;20499;-67
2022/12/11 13:26:26;;;;;;;21.15;10.45;;;;;;;;;;4897064;29;20052;-65
2022/12/11 13:28:51;;;;;;;17.00;9.02;;;;;;;;;;4896967;29;20066;-67
2022/12/11 13:31:17;;;;;;;17.58;8.10;;;;;;;;;;4911875;29;20045;-67
2022/12/11 13:33:45;;;;;;;18.23;9.13;;;;;;;;;;4897567;29;20040;-67
2022/12/11 13:36:11;;;;;;;17.58;9.05;;;;;;;;;;4911536;29;20478;-67
2022/12/11 13:38:38;;;;;;;16.17;9.35;;;;;;;;;;4911936;29;20075;-65
2022/12/11 13:41:09;;;;;;;14.98;8.45;;;;;;;;;;4897481;29;20120;-66
2022/12/11 13:43:35;;;;;;;16.05;7.93;;;;;;;;;;4911259;29;20040;-63
2022/12/11 13:46:02;;;;;;;20.20;9.15;;;;;;;;;;4911626;29;20043;-63
2022/12/11 13:48:34;;;;;;;17.27;7.63;;;;;;;;;;4897187;29;20409;-63
2022/12/11 13:51:00;;;;;;;15.75;8.77;;;;;;;;;;4896866;29;20048;-65
2022/12/11 13:53:28;;;;;;;14.55;8.05;;;;;;;;;;4895574;29;20111;-66
2022/12/11 13:55:58;;;;;;;17.25;7.93;;;;;;;;;;4895669;29;20041;-67
2022/12/11 13:58:24;;;;;;;16.13;8.88;;;;;;;;;;4895471;29;20033;-67
2022/12/11 14:01:01;;;;;;;17.33;9.68;;;;;;;;;;4896729;29;20051;-69
2022/12/11 14:03:31;;;;;;;15.80;8.48;;;;;;;;;;4895294;29;20043;-69
2022/12/11 14:05:59;;;;;;;18.35;9.45;;;;;;;;;;4896576;29;20052;-64
2022/12/11 14:08:28;;;;;;;12.77;6.95;;;;;;;;;;4911213;29;20044;-68
2022/12/11 14:10:54;;;;;;;14.98;7.30;;;;;;;;;;4910931;29;20047;-69
2022/12/11 14:13:24;;;;;;;15.07;7.88;;;;;;;;;;4894801;29;20060;-69
2022/12/11 14:15:50;;;;;;;16.05;7.60;;;;;;;;;;4911129;29;20478;-69
2022/12/11 14:18:36;;;;;;;16.65;8.50;;;;;;;;;;4896294;29;20140;-65
2022/12/11 14:21:03;;;;;;;14.02;6.75;;;;;;;;;;4895793;29;20056;-64
2022/12/11 14:23:30;;;;;;;17.35;7.97;;;;;;;;;;4896388;29;20035;-70
2022/12/11 14:25:56;;;;;;;15.02;8.25;;;;;;;;;;4911230;29;20059;-66
2022/12/11 14:28:26;;;;;;;15.82;8.38;;;;;;;;;;4895953;29;20032;-68
2022/12/11 14:30:53;;;;;;;17.48;9.15;;;;;;;;;;4910632;29;20045;-68
2022/12/11 14:33:20;;;;;;;20.38;10.27;;;;;;;;;;4910933;29;20095;-67
2022/12/11 14:35:47;;;;;;;15.55;8.82;;;;;;;;;;4910733;29;20037;-68
2022/12/11 14:38:24;;;;;;;15.50;7.55;;;;;;;;;;4896456;29;20380;-68
2022/12/11 14:40:58;;;;;;;13.13;6.78;;;;;;;;;;4896172;29;20084;-70
2022/12/11 14:43:45;;;;;;;13.00;6.50;;;;;;;;;;4894543;29;20033;-66
2022/12/11 14:46:16;;;;;;;10.57;6.43;;;;;;;;;;4910201;29;20048;-66
2022/12/11 14:48:44;;;;;;;14.20;7.00;;;;;;;;;;4896265;29;20084;-66